sensor_id;sensor_type;location;lat;lon;timestamp;P1;durP1;ratioP1;P2;durP2;ratioP2
6529;SDS011;3298;42.688;23.366;2023-02-10T00:00:32;16.83;;;9.47;;
6529;SDS011;3298;42.688;23.366;2023-02-10T00:02:59;25.30;;;11.40;;
6529;SDS011;3298;42.688;23.366;2023-02-10T00:05:26;30.67;;;13.27;;
6529;SDS011;3298;42.688;23.366;2023-02-10T00:07:53;28.97;;;12.07;;
6529;SDS011;3298;42.688;23.366;2023-02-10T00:10:21;39.33;;;14.90;;
6529;SDS011;3298;42.688;23.366;2023-02-10T00:12:48;29.70;;;13.00;;
6529;SDS011;3298;42.688;23.366;2023-02-10T00:15:15;33.53;;;15.57;;
6529;SDS011;3298;42.688;23.366;2023-02-10T00:17:42;26.30;;;12.23;;
6529;SDS011;3298;42.688;23.366;2023-02-10T00:20:09;31.10;;;13.73;;
6529;SDS011;3298;42.688;23.366;2023-02-10T00:22:36;32.20;;;14.17;;
6529;SDS011;3298;42.688;23.366;2023-02-10T00:25:03;23.73;;;12.27;;
6529;SDS011;3298;42.688;23.366;2023-02-10T00:27:31;25.73;;;11.10;;
6529;SDS011;3298;42.688;23.366;2023-02-10T00:29:58;26.73;;;10.20;;
6529;SDS011;3298;42.688;23.366;2023-02-10T00:32:25;25.87;;;11.07;;
6529;SDS011;3298;42.688;23.366;2023-02-10T00:34:52;31.17;;;11.03;;
6529;SDS011;3298;42.688;23.366;2023-02-10T00:37:18;23.30;;;11.37;;
6529;SDS011;3298;42.688;23.366;2023-02-10T00:39:45;29.57;;;10.00;;
6529;SDS011;3298;42.688;23.366;2023-02-10T00:42:12;24.17;;;10.33;;
6529;SDS011;3298;42.688;23.366;2023-02-10T00:44:40;26.00;;;10.43;;
6529;SDS011;3298;42.688;23.366;2023-02-10T00:47:07;26.60;;;10.03;;
6529;SDS011;3298;42.688;23.366;2023-02-10T00:49:34;25.07;;;11.13;;
6529;SDS011;3298;42.688;23.366;2023-02-10T00:52:01;20.57;;;9.90;;
6529;SDS011;3298;42.688;23.366;2023-02-10T00:54:28;20.37;;;8.80;;
6529;SDS011;3298;42.688;23.366;2023-02-10T00:56:54;31.77;;;10.37;;
6529;SDS011;3298;42.688;23.366;2023-02-10T00:59:21;28.57;;;10.93;;
6529;SDS011;3298;42.688;23.366;2023-02-10T01:01:49;16.00;;;8.90;;
6529;SDS011;3298;42.688;23.366;2023-02-10T01:04:16;15.60;;;5.83;;
6529;SDS011;3298;42.688;23.366;2023-02-10T01:06:43;14.43;;;8.20;;
6529;SDS011;3298;42.688;23.366;2023-02-10T01:09:10;14.03;;;8.17;;
6529;SDS011;3298;42.688;23.366;2023-02-10T01:11:37;25.80;;;12.37;;
6529;SDS011;3298;42.688;23.366;2023-02-10T01:14:04;36.13;;;14.90;;
6529;SDS011;3298;42.688;23.366;2023-02-10T01:16:30;33.23;;;13.93;;
6529;SDS011;3298;42.688;23.366;2023-02-10T01:18:59;35.20;;;14.00;;
6529;SDS011;3298;42.688;23.366;2023-02-10T01:21:26;24.57;;;11.73;;
6529;SDS011;3298;42.688;23.366;2023-02-10T01:23:54;22.77;;;10.57;;
6529;SDS011;3298;42.688;23.366;2023-02-10T01:26:22;17.67;;;9.50;;
6529;SDS011;3298;42.688;23.366;2023-02-10T01:28:48;18.07;;;8.53;;
6529;SDS011;3298;42.688;23.366;2023-02-10T01:31:16;9.40;;;6.67;;
6529;SDS011;3298;42.688;23.366;2023-02-10T01:33:44;11.90;;;6.93;;
6529;SDS011;3298;42.688;23.366;2023-02-10T01:36:14;23.33;;;11.27;;
6529;SDS011;3298;42.688;23.366;2023-02-10T01:38:42;37.23;;;16.47;;
6529;SDS011;3298;42.688;23.366;2023-02-10T01:41:11;55.90;;;21.97;;
6529;SDS011;3298;42.688;23.366;2023-02-10T01:46:53;38.00;;;18.77;;
6529;SDS011;3298;42.688;23.366;2023-02-10T01:49:22;42.73;;;20.27;;
6529;SDS011;3298;42.688;23.366;2023-02-10T01:51:54;47.57;;;19.63;;
6529;SDS011;3298;42.688;23.366;2023-02-10T01:54:23;47.63;;;19.50;;
6529;SDS011;3298;42.688;23.366;2023-02-10T01:56:53;36.77;;;15.33;;
6529;SDS011;3298;42.688;23.366;2023-02-10T01:59:20;28.17;;;13.30;;
6529;SDS011;3298;42.688;23.366;2023-02-10T02:01:49;37.50;;;16.23;;
6529;SDS011;3298;42.688;23.366;2023-02-10T02:04:16;30.47;;;15.13;;
6529;SDS011;3298;42.688;23.366;2023-02-10T02:06:43;30.13;;;14.17;;
6529;SDS011;3298;42.688;23.366;2023-02-10T02:09:12;24.37;;;11.97;;
6529;SDS011;3298;42.688;23.366;2023-02-10T02:11:40;26.03;;;12.27;;
6529;SDS011;3298;42.688;23.366;2023-02-10T02:14:24;20.60;;;11.23;;
6529;SDS011;3298;42.688;23.366;2023-02-10T02:16:58;23.07;;;12.33;;
6529;SDS011;3298;42.688;23.366;2023-02-10T02:22:57;31.97;;;15.13;;
6529;SDS011;3298;42.688;23.366;2023-02-10T02:25:37;34.87;;;11.93;;
6529;SDS011;3298;42.688;23.366;2023-02-10T02:28:23;22.47;;;10.90;;
6529;SDS011;3298;42.688;23.366;2023-02-10T02:34:07;51.67;;;20.57;;
6529;SDS011;3298;42.688;23.366;2023-02-10T02:36:40;32.50;;;15.27;;
6529;SDS011;3298;42.688;23.366;2023-02-10T02:39:11;36.80;;;15.73;;
6529;SDS011;3298;42.688;23.366;2023-02-10T02:41:37;35.27;;;14.97;;
6529;SDS011;3298;42.688;23.366;2023-02-10T02:44:04;45.80;;;15.83;;
6529;SDS011;3298;42.688;23.366;2023-02-10T02:46:34;26.37;;;13.07;;
6529;SDS011;3298;42.688;23.366;2023-02-10T02:49:12;28.13;;;11.97;;
6529;SDS011;3298;42.688;23.366;2023-02-10T02:51:46;21.67;;;11.00;;
6529;SDS011;3298;42.688;23.366;2023-02-10T02:54:21;20.70;;;9.93;;
6529;SDS011;3298;42.688;23.366;2023-02-10T02:56:53;19.33;;;10.10;;
6529;SDS011;3298;42.688;23.366;2023-02-10T02:59:29;18.60;;;9.20;;
6529;SDS011;3298;42.688;23.366;2023-02-10T03:02:02;22.40;;;10.73;;
6529;SDS011;3298;42.688;23.366;2023-02-10T03:04:33;19.23;;;11.03;;
6529;SDS011;3298;42.688;23.366;2023-02-10T03:07:01;21.70;;;10.50;;
6529;SDS011;3298;42.688;23.366;2023-02-10T03:09:28;21.33;;;10.63;;
6529;SDS011;3298;42.688;23.366;2023-02-10T03:11:56;20.47;;;8.30;;
6529;SDS011;3298;42.688;23.366;2023-02-10T03:14:23;12.47;;;6.50;;
6529;SDS011;3298;42.688;23.366;2023-02-10T03:16:50;16.07;;;8.10;;
6529;SDS011;3298;42.688;23.366;2023-02-10T03:19:18;11.83;;;7.13;;
6529;SDS011;3298;42.688;23.366;2023-02-10T03:21:45;18.90;;;7.87;;
6529;SDS011;3298;42.688;23.366;2023-02-10T03:24:12;21.53;;;10.77;;
6529;SDS011;3298;42.688;23.366;2023-02-10T03:26:39;21.33;;;8.50;;
6529;SDS011;3298;42.688;23.366;2023-02-10T03:29:06;19.97;;;8.40;;
6529;SDS011;3298;42.688;23.366;2023-02-10T03:31:33;18.57;;;9.87;;
6529;SDS011;3298;42.688;23.366;2023-02-10T03:34:00;18.20;;;9.13;;
6529;SDS011;3298;42.688;23.366;2023-02-10T03:36:30;20.37;;;8.93;;
6529;SDS011;3298;42.688;23.366;2023-02-10T03:38:58;21.47;;;8.93;;
6529;SDS011;3298;42.688;23.366;2023-02-10T03:41:25;16.40;;;8.37;;
6529;SDS011;3298;42.688;23.366;2023-02-10T03:43:52;16.20;;;9.60;;
6529;SDS011;3298;42.688;23.366;2023-02-10T03:46:19;11.67;;;8.50;;
6529;SDS011;3298;42.688;23.366;2023-02-10T03:48:46;22.20;;;10.50;;
6529;SDS011;3298;42.688;23.366;2023-02-10T03:51:13;14.70;;;7.87;;
6529;SDS011;3298;42.688;23.366;2023-02-10T03:53:41;18.23;;;9.50;;
6529;SDS011;3298;42.688;23.366;2023-02-10T03:56:08;16.67;;;8.47;;
6529;SDS011;3298;42.688;23.366;2023-02-10T03:58:36;12.17;;;7.73;;
6529;SDS011;3298;42.688;23.366;2023-02-10T04:01:13;11.87;;;7.80;;
6529;SDS011;3298;42.688;23.366;2023-02-10T04:03:40;10.57;;;7.03;;
6529;SDS011;3298;42.688;23.366;2023-02-10T04:06:08;11.07;;;7.47;;
6529;SDS011;3298;42.688;23.366;2023-02-10T04:08:35;10.67;;;7.63;;
6529;SDS011;3298;42.688;23.366;2023-02-10T04:11:04;13.63;;;8.23;;
6529;SDS011;3298;42.688;23.366;2023-02-10T04:13:33;26.50;;;9.37;;
6529;SDS011;3298;42.688;23.366;2023-02-10T04:16:00;17.03;;;10.23;;
6529;SDS011;3298;42.688;23.366;2023-02-10T04:18:28;18.90;;;10.60;;
6529;SDS011;3298;42.688;23.366;2023-02-10T04:20:54;17.80;;;9.63;;
6529;SDS011;3298;42.688;23.366;2023-02-10T04:23:22;25.37;;;12.67;;
6529;SDS011;3298;42.688;23.366;2023-02-10T04:25:48;22.80;;;11.53;;
6529;SDS011;3298;42.688;23.366;2023-02-10T04:28:17;28.33;;;12.93;;
6529;SDS011;3298;42.688;23.366;2023-02-10T04:30:43;24.53;;;12.40;;
6529;SDS011;3298;42.688;23.366;2023-02-10T04:33:10;22.20;;;11.93;;
6529;SDS011;3298;42.688;23.366;2023-02-10T04:35:37;20.37;;;11.57;;
6529;SDS011;3298;42.688;23.366;2023-02-10T04:38:04;23.53;;;11.77;;
6529;SDS011;3298;42.688;23.366;2023-02-10T04:40:30;20.67;;;11.27;;
6529;SDS011;3298;42.688;23.366;2023-02-10T04:42:57;17.80;;;10.87;;
6529;SDS011;3298;42.688;23.366;2023-02-10T04:45:25;25.17;;;11.00;;
6529;SDS011;3298;42.688;23.366;2023-02-10T04:47:52;16.43;;;9.93;;
6529;SDS011;3298;42.688;23.366;2023-02-10T04:50:19;23.07;;;11.83;;
6529;SDS011;3298;42.688;23.366;2023-02-10T04:52:46;27.13;;;12.37;;
6529;SDS011;3298;42.688;23.366;2023-02-10T04:55:12;27.07;;;12.03;;
6529;SDS011;3298;42.688;23.366;2023-02-10T04:57:39;29.37;;;13.67;;
6529;SDS011;3298;42.688;23.366;2023-02-10T05:00:06;23.07;;;12.73;;
6529;SDS011;3298;42.688;23.366;2023-02-10T05:02:35;21.87;;;11.63;;
6529;SDS011;3298;42.688;23.366;2023-02-10T05:05:03;22.00;;;10.73;;
6529;SDS011;3298;42.688;23.366;2023-02-10T05:07:30;23.53;;;11.60;;
6529;SDS011;3298;42.688;23.366;2023-02-10T05:09:57;24.70;;;10.20;;
6529;SDS011;3298;42.688;23.366;2023-02-10T05:12:24;20.20;;;8.93;;
6529;SDS011;3298;42.688;23.366;2023-02-10T05:14:51;18.53;;;9.27;;
6529;SDS011;3298;42.688;23.366;2023-02-10T05:17:18;13.27;;;7.37;;
6529;SDS011;3298;42.688;23.366;2023-02-10T05:19:46;15.37;;;8.40;;
6529;SDS011;3298;42.688;23.366;2023-02-10T05:22:13;9.00;;;7.53;;
6529;SDS011;3298;42.688;23.366;2023-02-10T05:24:39;20.13;;;10.23;;
6529;SDS011;3298;42.688;23.366;2023-02-10T05:27:06;20.90;;;10.83;;
6529;SDS011;3298;42.688;23.366;2023-02-10T05:29:33;20.50;;;10.60;;
6529;SDS011;3298;42.688;23.366;2023-02-10T05:32:00;24.33;;;13.53;;
6529;SDS011;3298;42.688;23.366;2023-02-10T05:34:27;50.77;;;20.03;;
6529;SDS011;3298;42.688;23.366;2023-02-10T05:36:55;57.10;;;23.03;;
6529;SDS011;3298;42.688;23.366;2023-02-10T05:39:22;52.97;;;20.50;;
6529;SDS011;3298;42.688;23.366;2023-02-10T05:41:49;34.73;;;15.87;;
6529;SDS011;3298;42.688;23.366;2023-02-10T05:44:16;42.00;;;16.97;;
6529;SDS011;3298;42.688;23.366;2023-02-10T05:46:43;28.83;;;14.57;;
6529;SDS011;3298;42.688;23.366;2023-02-10T05:49:10;24.70;;;13.37;;
6529;SDS011;3298;42.688;23.366;2023-02-10T05:51:37;34.70;;;15.43;;
6529;SDS011;3298;42.688;23.366;2023-02-10T05:54:05;29.27;;;14.47;;
6529;SDS011;3298;42.688;23.366;2023-02-10T05:56:33;30.77;;;12.40;;
6529;SDS011;3298;42.688;23.366;2023-02-10T05:59:00;25.83;;;13.80;;
6529;SDS011;3298;42.688;23.366;2023-02-10T06:01:26;35.90;;;16.60;;
6529;SDS011;3298;42.688;23.366;2023-02-10T06:03:53;30.37;;;14.23;;
6529;SDS011;3298;42.688;23.366;2023-02-10T06:06:21;29.30;;;14.33;;
6529;SDS011;3298;42.688;23.366;2023-02-10T06:08:47;25.40;;;13.43;;
6529;SDS011;3298;42.688;23.366;2023-02-10T06:11:16;37.57;;;12.37;;
6529;SDS011;3298;42.688;23.366;2023-02-10T06:13:42;28.33;;;13.00;;
6529;SDS011;3298;42.688;23.366;2023-02-10T06:16:09;26.53;;;13.97;;
6529;SDS011;3298;42.688;23.366;2023-02-10T06:18:36;21.57;;;12.73;;
6529;SDS011;3298;42.688;23.366;2023-02-10T06:21:04;24.97;;;11.63;;
6529;SDS011;3298;42.688;23.366;2023-02-10T06:23:31;19.93;;;11.63;;
6529;SDS011;3298;42.688;23.366;2023-02-10T06:25:57;26.67;;;12.73;;
6529;SDS011;3298;42.688;23.366;2023-02-10T06:28:26;25.10;;;12.47;;
6529;SDS011;3298;42.688;23.366;2023-02-10T06:30:54;24.27;;;12.83;;
6529;SDS011;3298;42.688;23.366;2023-02-10T06:33:21;19.43;;;11.03;;
6529;SDS011;3298;42.688;23.366;2023-02-10T06:35:47;25.13;;;12.83;;
6529;SDS011;3298;42.688;23.366;2023-02-10T06:38:14;29.53;;;13.83;;
6529;SDS011;3298;42.688;23.366;2023-02-10T06:40:42;24.10;;;13.20;;
6529;SDS011;3298;42.688;23.366;2023-02-10T06:43:09;28.20;;;13.57;;
6529;SDS011;3298;42.688;23.366;2023-02-10T06:45:37;30.80;;;15.67;;
6529;SDS011;3298;42.688;23.366;2023-02-10T06:48:04;35.10;;;16.63;;
6529;SDS011;3298;42.688;23.366;2023-02-10T06:50:31;38.53;;;19.70;;
6529;SDS011;3298;42.688;23.366;2023-02-10T06:52:58;26.43;;;14.13;;
6529;SDS011;3298;42.688;23.366;2023-02-10T06:55:24;22.47;;;11.70;;
6529;SDS011;3298;42.688;23.366;2023-02-10T06:57:51;24.63;;;13.47;;
6529;SDS011;3298;42.688;23.366;2023-02-10T07:00:18;26.30;;;12.83;;
6529;SDS011;3298;42.688;23.366;2023-02-10T07:02:47;28.10;;;14.87;;
6529;SDS011;3298;42.688;23.366;2023-02-10T07:05:13;28.30;;;15.67;;
6529;SDS011;3298;42.688;23.366;2023-02-10T07:07:40;32.60;;;17.50;;
6529;SDS011;3298;42.688;23.366;2023-02-10T07:10:07;41.70;;;18.30;;
6529;SDS011;3298;42.688;23.366;2023-02-10T07:12:35;34.13;;;16.03;;
6529;SDS011;3298;42.688;23.366;2023-02-10T07:15:02;32.50;;;15.67;;
6529;SDS011;3298;42.688;23.366;2023-02-10T07:17:29;36.27;;;16.33;;
6529;SDS011;3298;42.688;23.366;2023-02-10T07:19:57;31.33;;;17.00;;
6529;SDS011;3298;42.688;23.366;2023-02-10T07:22:24;44.13;;;19.10;;
6529;SDS011;3298;42.688;23.366;2023-02-10T07:24:51;39.87;;;19.83;;
6529;SDS011;3298;42.688;23.366;2023-02-10T07:27:18;39.57;;;20.33;;
6529;SDS011;3298;42.688;23.366;2023-02-10T07:29:44;36.73;;;19.80;;
6529;SDS011;3298;42.688;23.366;2023-02-10T07:32:12;43.47;;;19.17;;
6529;SDS011;3298;42.688;23.366;2023-02-10T07:34:39;42.73;;;21.97;;
6529;SDS011;3298;42.688;23.366;2023-02-10T07:37:08;45.03;;;20.57;;
6529;SDS011;3298;42.688;23.366;2023-02-10T07:39:34;36.30;;;17.83;;
6529;SDS011;3298;42.688;23.366;2023-02-10T07:42:02;34.93;;;17.00;;
6529;SDS011;3298;42.688;23.366;2023-02-10T07:44:28;39.93;;;18.23;;
6529;SDS011;3298;42.688;23.366;2023-02-10T07:46:55;31.60;;;16.07;;
6529;SDS011;3298;42.688;23.366;2023-02-10T07:49:22;28.33;;;17.13;;
6529;SDS011;3298;42.688;23.366;2023-02-10T07:51:49;35.93;;;19.33;;
6529;SDS011;3298;42.688;23.366;2023-02-10T07:54:17;29.37;;;15.63;;
6529;SDS011;3298;42.688;23.366;2023-02-10T07:56:44;41.87;;;19.57;;
6529;SDS011;3298;42.688;23.366;2023-02-10T07:59:11;48.93;;;20.30;;
6529;SDS011;3298;42.688;23.366;2023-02-10T08:01:39;44.43;;;21.53;;
6529;SDS011;3298;42.688;23.366;2023-02-10T08:04:07;33.83;;;17.17;;
6529;SDS011;3298;42.688;23.366;2023-02-10T08:06:35;34.40;;;19.10;;
6529;SDS011;3298;42.688;23.366;2023-02-10T08:09:02;40.30;;;19.87;;
6529;SDS011;3298;42.688;23.366;2023-02-10T08:11:31;40.33;;;18.30;;
6529;SDS011;3298;42.688;23.366;2023-02-10T08:13:58;38.17;;;18.93;;
6529;SDS011;3298;42.688;23.366;2023-02-10T08:16:26;27.93;;;16.27;;
6529;SDS011;3298;42.688;23.366;2023-02-10T08:18:53;31.37;;;14.97;;
6529;SDS011;3298;42.688;23.366;2023-02-10T08:21:19;25.30;;;15.63;;
6529;SDS011;3298;42.688;23.366;2023-02-10T08:23:46;31.50;;;16.07;;
6529;SDS011;3298;42.688;23.366;2023-02-10T08:26:19;32.80;;;18.07;;
6529;SDS011;3298;42.688;23.366;2023-02-10T08:28:48;34.83;;;16.77;;
6529;SDS011;3298;42.688;23.366;2023-02-10T08:31:16;33.10;;;17.00;;
6529;SDS011;3298;42.688;23.366;2023-02-10T08:33:43;36.60;;;18.00;;
6529;SDS011;3298;42.688;23.366;2023-02-10T08:36:10;36.53;;;16.67;;
6529;SDS011;3298;42.688;23.366;2023-02-10T08:38:38;32.17;;;16.43;;
6529;SDS011;3298;42.688;23.366;2023-02-10T08:41:05;31.03;;;17.83;;
6529;SDS011;3298;42.688;23.366;2023-02-10T08:43:32;32.87;;;16.73;;
6529;SDS011;3298;42.688;23.366;2023-02-10T08:46:00;32.43;;;18.30;;
6529;SDS011;3298;42.688;23.366;2023-02-10T08:48:28;41.57;;;18.33;;
6529;SDS011;3298;42.688;23.366;2023-02-10T08:50:56;38.50;;;17.20;;
6529;SDS011;3298;42.688;23.366;2023-02-10T08:53:23;30.20;;;17.43;;
6529;SDS011;3298;42.688;23.366;2023-02-10T08:55:56;31.37;;;17.30;;
6529;SDS011;3298;42.688;23.366;2023-02-10T08:58:23;34.63;;;16.80;;
6529;SDS011;3298;42.688;23.366;2023-02-10T09:00:51;32.07;;;16.83;;
6529;SDS011;3298;42.688;23.366;2023-02-10T09:03:19;27.60;;;15.27;;
6529;SDS011;3298;42.688;23.366;2023-02-10T09:05:46;34.90;;;18.10;;
6529;SDS011;3298;42.688;23.366;2023-02-10T09:08:13;27.53;;;16.60;;
6529;SDS011;3298;42.688;23.366;2023-02-10T09:10:40;27.50;;;15.47;;
6529;SDS011;3298;42.688;23.366;2023-02-10T09:13:08;29.40;;;14.43;;
6529;SDS011;3298;42.688;23.366;2023-02-10T09:15:36;28.47;;;14.40;;
6529;SDS011;3298;42.688;23.366;2023-02-10T09:18:03;28.10;;;15.57;;
6529;SDS011;3298;42.688;23.366;2023-02-10T09:20:32;23.40;;;13.10;;
6529;SDS011;3298;42.688;23.366;2023-02-10T09:22:59;26.10;;;14.07;;
6529;SDS011;3298;42.688;23.366;2023-02-10T09:25:26;27.57;;;15.73;;
6529;SDS011;3298;42.688;23.366;2023-02-10T09:27:53;23.67;;;14.47;;
6529;SDS011;3298;42.688;23.366;2023-02-10T09:30:22;23.03;;;14.37;;
6529;SDS011;3298;42.688;23.366;2023-02-10T09:32:49;23.27;;;14.17;;
6529;SDS011;3298;42.688;23.366;2023-02-10T09:35:16;24.50;;;13.47;;
6529;SDS011;3298;42.688;23.366;2023-02-10T09:37:45;26.23;;;13.00;;
6529;SDS011;3298;42.688;23.366;2023-02-10T09:40:13;24.37;;;14.47;;
6529;SDS011;3298;42.688;23.366;2023-02-10T09:42:46;29.20;;;13.63;;
6529;SDS011;3298;42.688;23.366;2023-02-10T09:45:31;23.13;;;13.47;;
6529;SDS011;3298;42.688;23.366;2023-02-10T09:48:03;22.43;;;11.60;;
6529;SDS011;3298;42.688;23.366;2023-02-10T09:50:49;22.90;;;13.73;;
6529;SDS011;3298;42.688;23.366;2023-02-10T09:53:23;25.03;;;13.53;;
6529;SDS011;3298;42.688;23.366;2023-02-10T09:55:54;24.83;;;13.87;;
6529;SDS011;3298;42.688;23.366;2023-02-10T09:58:24;22.77;;;12.57;;
6529;SDS011;3298;42.688;23.366;2023-02-10T10:00:57;44.40;;;15.27;;
6529;SDS011;3298;42.688;23.366;2023-02-10T10:03:33;25.10;;;14.10;;
6529;SDS011;3298;42.688;23.366;2023-02-10T10:06:16;31.97;;;14.13;;
6529;SDS011;3298;42.688;23.366;2023-02-10T10:08:50;21.73;;;12.87;;
6529;SDS011;3298;42.688;23.366;2023-02-10T10:11:26;41.93;;;20.47;;
6529;SDS011;3298;42.688;23.366;2023-02-10T10:14:05;28.00;;;15.47;;
6529;SDS011;3298;42.688;23.366;2023-02-10T10:16:43;26.37;;;13.97;;
6529;SDS011;3298;42.688;23.366;2023-02-10T10:19:22;21.87;;;12.60;;
6529;SDS011;3298;42.688;23.366;2023-02-10T10:22:00;24.10;;;12.13;;
6529;SDS011;3298;42.688;23.366;2023-02-10T10:24:43;22.63;;;12.37;;
6529;SDS011;3298;42.688;23.366;2023-02-10T10:27:24;20.87;;;12.23;;
6529;SDS011;3298;42.688;23.366;2023-02-10T10:30:01;20.27;;;11.97;;
6529;SDS011;3298;42.688;23.366;2023-02-10T10:32:35;20.70;;;12.23;;
6529;SDS011;3298;42.688;23.366;2023-02-10T10:35:11;20.70;;;12.13;;
6529;SDS011;3298;42.688;23.366;2023-02-10T10:37:42;32.47;;;13.20;;
6529;SDS011;3298;42.688;23.366;2023-02-10T10:40:14;23.23;;;11.50;;
6529;SDS011;3298;42.688;23.366;2023-02-10T10:42:44;21.00;;;12.23;;
6529;SDS011;3298;42.688;23.366;2023-02-10T10:45:14;25.40;;;12.00;;
6529;SDS011;3298;42.688;23.366;2023-02-10T10:47:45;19.67;;;12.57;;
6529;SDS011;3298;42.688;23.366;2023-02-10T10:50:15;25.30;;;11.83;;
6529;SDS011;3298;42.688;23.366;2023-02-10T10:52:44;24.17;;;11.30;;
6529;SDS011;3298;42.688;23.366;2023-02-10T10:55:18;19.50;;;11.50;;
6529;SDS011;3298;42.688;23.366;2023-02-10T10:57:48;18.33;;;10.93;;
6529;SDS011;3298;42.688;23.366;2023-02-10T11:00:18;14.37;;;8.73;;
6529;SDS011;3298;42.688;23.366;2023-02-10T11:02:51;23.17;;;11.40;;
6529;SDS011;3298;42.688;23.366;2023-02-10T11:05:19;16.60;;;9.73;;
6529;SDS011;3298;42.688;23.366;2023-02-10T11:07:49;20.00;;;11.97;;
6529;SDS011;3298;42.688;23.366;2023-02-10T11:10:21;20.43;;;12.10;;
6529;SDS011;3298;42.688;23.366;2023-02-10T11:12:50;20.77;;;10.33;;
6529;SDS011;3298;42.688;23.366;2023-02-10T11:15:28;24.77;;;10.57;;
6529;SDS011;3298;42.688;23.366;2023-02-10T11:18:00;15.63;;;9.37;;
6529;SDS011;3298;42.688;23.366;2023-02-10T11:20:30;25.87;;;12.07;;
6529;SDS011;3298;42.688;23.366;2023-02-10T11:22:59;17.27;;;10.53;;
6529;SDS011;3298;42.688;23.366;2023-02-10T11:25:30;18.10;;;10.57;;
6529;SDS011;3298;42.688;23.366;2023-02-10T11:28:00;18.87;;;10.43;;
6529;SDS011;3298;42.688;23.366;2023-02-10T11:30:29;14.30;;;9.93;;
6529;SDS011;3298;42.688;23.366;2023-02-10T11:32:58;16.13;;;9.03;;
6529;SDS011;3298;42.688;23.366;2023-02-10T11:35:26;17.03;;;10.70;;
6529;SDS011;3298;42.688;23.366;2023-02-10T11:37:56;15.47;;;10.00;;
6529;SDS011;3298;42.688;23.366;2023-02-10T11:40:25;10.93;;;9.67;;
6529;SDS011;3298;42.688;23.366;2023-02-10T11:42:56;19.30;;;10.23;;
6529;SDS011;3298;42.688;23.366;2023-02-10T11:45:24;19.90;;;9.90;;
6529;SDS011;3298;42.688;23.366;2023-02-10T11:47:59;19.27;;;10.97;;
6529;SDS011;3298;42.688;23.366;2023-02-10T11:50:29;24.87;;;12.47;;
6529;SDS011;3298;42.688;23.366;2023-02-10T11:52:58;17.07;;;11.73;;
6529;SDS011;3298;42.688;23.366;2023-02-10T11:55:28;18.70;;;10.13;;
6529;SDS011;3298;42.688;23.366;2023-02-10T11:58:14;19.23;;;10.90;;
6529;SDS011;3298;42.688;23.366;2023-02-10T12:01:12;14.87;;;9.63;;
6529;SDS011;3298;42.688;23.366;2023-02-10T12:03:48;17.00;;;10.33;;
6529;SDS011;3298;42.688;23.366;2023-02-10T12:06:29;13.70;;;9.53;;
6529;SDS011;3298;42.688;23.366;2023-02-10T12:09:00;20.97;;;11.63;;
6529;SDS011;3298;42.688;23.366;2023-02-10T12:11:34;20.20;;;10.63;;
6529;SDS011;3298;42.688;23.366;2023-02-10T12:14:16;13.60;;;10.07;;
6529;SDS011;3298;42.688;23.366;2023-02-10T12:16:57;19.40;;;10.70;;
6529;SDS011;3298;42.688;23.366;2023-02-10T12:19:32;17.60;;;10.87;;
6529;SDS011;3298;42.688;23.366;2023-02-10T12:22:09;16.87;;;10.80;;
6529;SDS011;3298;42.688;23.366;2023-02-10T12:24:49;22.43;;;11.77;;
6529;SDS011;3298;42.688;23.366;2023-02-10T12:27:27;15.43;;;9.60;;
6529;SDS011;3298;42.688;23.366;2023-02-10T12:30:06;18.13;;;10.37;;
6529;SDS011;3298;42.688;23.366;2023-02-10T12:32:45;14.30;;;10.77;;
6529;SDS011;3298;42.688;23.366;2023-02-10T12:38:11;18.17;;;10.73;;
6529;SDS011;3298;42.688;23.366;2023-02-10T12:40:51;18.10;;;10.77;;
6529;SDS011;3298;42.688;23.366;2023-02-10T12:43:32;26.40;;;11.77;;
6529;SDS011;3298;42.688;23.366;2023-02-10T12:46:10;19.13;;;10.77;;
6529;SDS011;3298;42.688;23.366;2023-02-10T12:48:46;19.87;;;11.20;;
6529;SDS011;3298;42.688;23.366;2023-02-10T12:51:24;22.07;;;12.00;;
6529;SDS011;3298;42.688;23.366;2023-02-10T12:54:00;26.10;;;11.67;;
6529;SDS011;3298;42.688;23.366;2023-02-10T12:56:35;16.83;;;10.77;;
6529;SDS011;3298;42.688;23.366;2023-02-10T12:59:08;21.63;;;10.63;;
6529;SDS011;3298;42.688;23.366;2023-02-10T13:01:44;17.13;;;10.43;;
6529;SDS011;3298;42.688;23.366;2023-02-10T13:04:16;17.50;;;11.17;;
6529;SDS011;3298;42.688;23.366;2023-02-10T13:06:50;21.57;;;11.47;;
6529;SDS011;3298;42.688;23.366;2023-02-10T13:09:21;16.07;;;10.80;;
6529;SDS011;3298;42.688;23.366;2023-02-10T13:12:02;26.23;;;14.07;;
6529;SDS011;3298;42.688;23.366;2023-02-10T13:14:34;46.97;;;22.40;;
6529;SDS011;3298;42.688;23.366;2023-02-10T13:17:03;36.90;;;19.27;;
6529;SDS011;3298;42.688;23.366;2023-02-10T13:19:33;21.27;;;11.90;;
6529;SDS011;3298;42.688;23.366;2023-02-10T13:22:10;23.13;;;11.77;;
6529;SDS011;3298;42.688;23.366;2023-02-10T13:24:44;20.20;;;12.03;;
6529;SDS011;3298;42.688;23.366;2023-02-10T13:27:23;23.97;;;12.87;;
6529;SDS011;3298;42.688;23.366;2023-02-10T13:30:00;31.90;;;14.37;;
6529;SDS011;3298;42.688;23.366;2023-02-10T13:32:47;19.63;;;12.60;;
6529;SDS011;3298;42.688;23.366;2023-02-10T13:35:23;19.57;;;13.73;;
6529;SDS011;3298;42.688;23.366;2023-02-10T13:37:52;20.03;;;12.37;;
6529;SDS011;3298;42.688;23.366;2023-02-10T13:40:21;19.90;;;12.03;;
6529;SDS011;3298;42.688;23.366;2023-02-10T13:42:50;24.93;;;12.93;;
6529;SDS011;3298;42.688;23.366;2023-02-10T13:45:19;27.47;;;12.97;;
6529;SDS011;3298;42.688;23.366;2023-02-10T13:47:51;24.80;;;13.83;;
6529;SDS011;3298;42.688;23.366;2023-02-10T13:50:30;26.37;;;13.43;;
6529;SDS011;3298;42.688;23.366;2023-02-10T13:56:09;25.33;;;13.60;;
6529;SDS011;3298;42.688;23.366;2023-02-10T13:58:47;25.83;;;14.13;;
6529;SDS011;3298;42.688;23.366;2023-02-10T14:01:32;25.47;;;12.67;;
6529;SDS011;3298;42.688;23.366;2023-02-10T14:04:02;21.00;;;11.93;;
6529;SDS011;3298;42.688;23.366;2023-02-10T14:06:33;21.00;;;11.97;;
6529;SDS011;3298;42.688;23.366;2023-02-10T14:09:03;21.17;;;11.63;;
6529;SDS011;3298;42.688;23.366;2023-02-10T14:11:39;15.87;;;11.37;;
6529;SDS011;3298;42.688;23.366;2023-02-10T14:14:17;19.03;;;11.13;;
6529;SDS011;3298;42.688;23.366;2023-02-10T14:16:46;20.30;;;10.57;;
6529;SDS011;3298;42.688;23.366;2023-02-10T14:19:27;22.53;;;11.03;;
6529;SDS011;3298;42.688;23.366;2023-02-10T14:21:56;21.40;;;12.50;;
6529;SDS011;3298;42.688;23.366;2023-02-10T14:24:25;22.77;;;12.03;;
6529;SDS011;3298;42.688;23.366;2023-02-10T14:26:53;15.70;;;9.60;;
6529;SDS011;3298;42.688;23.366;2023-02-10T14:29:23;31.70;;;13.63;;
6529;SDS011;3298;42.688;23.366;2023-02-10T14:31:53;35.40;;;13.57;;
6529;SDS011;3298;42.688;23.366;2023-02-10T14:34:24;16.73;;;11.03;;
6529;SDS011;3298;42.688;23.366;2023-02-10T14:36:53;133.47;;;41.00;;
6529;SDS011;3298;42.688;23.366;2023-02-10T14:39:22;127.40;;;39.33;;
6529;SDS011;3298;42.688;23.366;2023-02-10T14:41:50;168.93;;;59.80;;
6529;SDS011;3298;42.688;23.366;2023-02-10T14:44:21;48.40;;;22.87;;
6529;SDS011;3298;42.688;23.366;2023-02-10T14:46:52;41.73;;;21.53;;
6529;SDS011;3298;42.688;23.366;2023-02-10T14:49:20;38.27;;;19.10;;
6529;SDS011;3298;42.688;23.366;2023-02-10T14:51:49;27.87;;;15.43;;
6529;SDS011;3298;42.688;23.366;2023-02-10T14:54:18;34.03;;;18.03;;
6529;SDS011;3298;42.688;23.366;2023-02-10T14:56:50;32.40;;;17.50;;
6529;SDS011;3298;42.688;23.366;2023-02-10T14:59:19;28.83;;;17.33;;
6529;SDS011;3298;42.688;23.366;2023-02-10T15:01:47;34.13;;;19.23;;
6529;SDS011;3298;42.688;23.366;2023-02-10T15:04:15;26.37;;;16.10;;
6529;SDS011;3298;42.688;23.366;2023-02-10T15:06:44;37.70;;;16.73;;